Time;durP1;ratioP1;P1;durP2;ratioP2;P2;SDS_P1;SDS_P2;PMS_P1;PMS_P2;Temp;Humidity;BMP_temperature;BMP_pressure;BME280_temperature;BME280_humidity;BME280_pressure;Samples;Min_cycle;Max_cycle;Signal;HPM_P1;HPM_P2
2022/06/06 00:00:47;;;;;;;2.92;0.90;;;;;;;;;;7393422;19;20145;-76
2022/06/06 00:03:17;;;;;;;1.95;1.15;;;;;;;;;;7393110;19;20549;-77
2022/06/06 00:05:45;;;;;;;5.18;1.10;;;;;;;;;;7392203;19;20010;-76
2022/06/06 00:08:12;;;;;;;3.15;1.10;;;;;;;;;;7389924;19;20017;-76
2022/06/06 00:10:39;;;;;;;2.33;1.00;;;;;;;;;;7390864;19;20006;-76
2022/06/06 00:13:05;;;;;;;1.67;0.90;;;;;;;;;;7389307;19;20115;-77
2022/06/06 00:15:30;;;;;;;4.72;1.10;;;;;;;;;;7388870;19;20035;-77
2022/06/06 00:17:56;;;;;;;3.08;1.10;;;;;;;;;;7390621;19;20010;-77
2022/06/06 00:20:21;;;;;;;2.25;1.08;;;;;;;;;;7391476;19;20022;-76
2022/06/06 00:22:46;;;;;;;3.70;1.20;;;;;;;;;;7392977;19;19999;-77
2022/06/06 00:25:12;;;;;;;3.03;1.05;;;;;;;;;;7387720;19;20075;-77
2022/06/06 00:27:37;;;;;;;2.28;1.20;;;;;;;;;;7389197;19;20027;-77
2022/06/06 00:30:03;;;;;;;3.30;1.40;;;;;;;;;;7388696;19;20017;-76
2022/06/06 00:35:12;;;;;;;12.43;1.00;;;;;;;;;;7388509;19;20042;-77
2022/06/06 00:37:42;;;;;;;4.05;1.35;;;;;;;;;;7389808;19;20015;-77
2022/06/06 00:40:10;;;;;;;4.07;1.40;;;;;;;;;;7391078;19;20345;-77
2022/06/06 00:42:38;;;;;;;4.32;1.30;;;;;;;;;;7390594;19;20007;-76
2022/06/06 00:45:22;;;;;;;2.90;1.00;;;;;;;;;;7389842;19;20021;-77
2022/06/06 00:47:52;;;;;;;2.58;1.08;;;;;;;;;;7389080;19;20030;-77
2022/06/06 00:50:28;;;;;;;1.75;1.00;;;;;;;;;;7390435;19;20034;-76
2022/06/06 00:52:55;;;;;;;1.20;1.08;;;;;;;;;;7388211;19;20014;-77
2022/06/06 00:55:24;;;;;;;1.27;0.90;;;;;;;;;;7388457;19;20122;-77
2022/06/06 00:57:58;;;;;;;4.45;1.27;;;;;;;;;;7388784;19;20006;-77
2022/06/06 01:00:23;;;;;;;1.75;1.33;;;;;;;;;;7388069;19;20035;-77
2022/06/06 01:02:53;;;;;;;5.93;1.35;;;;;;;;;;7387243;19;20006;-77
2022/06/06 01:05:20;;;;;;;1.38;1.08;;;;;;;;;;7386828;19;20014;-77
2022/06/06 01:07:46;;;;;;;1.15;1.00;;;;;;;;;;7390239;19;20047;-77
2022/06/06 01:10:11;;;;;;;1.88;1.10;;;;;;;;;;7389865;19;20338;-77
2022/06/06 01:12:38;;;;;;;4.55;1.02;;;;;;;;;;7391210;19;20463;-77
2022/06/06 01:15:08;;;;;;;1.90;1.05;;;;;;;;;;7389722;19;20023;-77
2022/06/06 01:17:46;;;;;;;1.15;1.00;;;;;;;;;;7389542;19;20034;-77
2022/06/06 01:20:20;;;;;;;2.55;1.38;;;;;;;;;;7388632;19;20015;-76
2022/06/06 01:23:19;;;;;;;0.95;0.80;;;;;;;;;;7389881;19;20075;-77
2022/06/06 01:25:54;;;;;;;1.83;1.05;;;;;;;;;;7389316;19;20467;-77
2022/06/06 01:28:30;;;;;;;;;;;;;;;;;;7388775;19;20047;-77
2022/06/06 01:30:58;;;;;;;1.05;1.00;;;;;;;;;;7388636;19;20275;-77
2022/06/06 01:33:23;;;;;;;0.85;0.82;;;;;;;;;;7388436;19;20035;-77
2022/06/06 01:35:52;;;;;;;1.42;0.98;;;;;;;;;;7388167;19;20009;-76
2022/06/06 01:38:21;;;;;;;1.05;0.98;;;;;;;;;;7385630;19;20062;-77
2022/06/06 01:41:01;;;;;;;0.80;0.80;;;;;;;;;;7389127;19;20023;-77
2022/06/06 01:43:45;;;;;;;2.00;1.02;;;;;;;;;;7387413;19;20038;-77
2022/06/06 01:46:18;;;;;;;2.55;1.33;;;;;;;;;;7387085;19;20025;-77
2022/06/06 01:48:46;;;;;;;2.97;1.70;;;;;;;;;;7389483;19;20425;-77
2022/06/06 01:51:14;;;;;;;2.95;1.00;;;;;;;;;;7387801;19;20007;-77
2022/06/06 01:53:40;;;;;;;1.25;1.10;;;;;;;;;;7389563;19;20025;-77
2022/06/06 01:56:08;;;;;;;11.13;1.52;;;;;;;;;;7387927;19;20003;-77
2022/06/06 01:58:34;;;;;;;2.88;1.05;;;;;;;;;;7387593;19;20014;-77
2022/06/06 02:01:02;;;;;;;2.33;0.98;;;;;;;;;;7385745;19;20030;-77
2022/06/06 02:03:28;;;;;;;1.98;0.77;;;;;;;;;;7390099;19;20048;-77
2022/06/06 02:05:54;;;;;;;1.13;0.88;;;;;;;;;;7389557;19;20002;-76
2022/06/06 02:08:19;;;;;;;1.38;0.60;;;;;;;;;;7385863;19;20026;-76
2022/06/06 02:10:45;;;;;;;1.90;0.90;;;;;;;;;;7389335;19;20006;-77
2022/06/06 02:13:10;;;;;;;1.17;0.90;;;;;;;;;;7389449;19;20519;-77
2022/06/06 02:15:36;;;;;;;1.70;0.90;;;;;;;;;;7388820;19;20007;-76
2022/06/06 02:18:02;;;;;;;1.77;0.80;;;;;;;;;;7388190;19;20456;-77
2022/06/06 02:20:29;;;;;;;1.52;1.10;;;;;;;;;;7387212;19;20026;-76
2022/06/06 02:22:55;;;;;;;1.23;1.10;;;;;;;;;;7386268;19;20010;-77
2022/06/06 02:25:22;;;;;;;1.60;1.13;;;;;;;;;;7386495;19;20346;-76
2022/06/06 02:27:48;;;;;;;1.55;0.90;;;;;;;;;;7386037;19;20023;-77
2022/06/06 02:30:17;;;;;;;6.00;1.00;;;;;;;;;;7388749;19;20006;-77
2022/06/06 02:32:43;;;;;;;1.58;1.00;;;;;;;;;;7387302;19;20030;-77
2022/06/06 02:35:10;;;;;;;1.40;1.08;;;;;;;;;;7387011;19;20006;-76
2022/06/06 02:37:36;;;;;;;1.45;1.15;;;;;;;;;;7388947;19;20014;-77
2022/06/06 02:40:03;;;;;;;4.65;1.02;;;;;;;;;;7386472;19;20014;-78
2022/06/06 02:42:28;;;;;;;0.93;0.90;;;;;;;;;;7386362;19;20109;-77
2022/06/06 02:44:53;;;;;;;3.92;1.30;;;;;;;;;;7385219;19;20003;-77
2022/06/06 02:47:19;;;;;;;2.85;1.08;;;;;;;;;;7387901;19;20006;-76
2022/06/06 02:49:44;;;;;;;2.38;0.85;;;;;;;;;;7389455;19;20039;-76
2022/06/06 02:52:10;;;;;;;2.28;1.17;;;;;;;;;;7395132;19;20125;-77
2022/06/06 02:54:36;;;;;;;2.63;1.00;;;;;;;;;;7395793;19;20007;-77
2022/06/06 02:57:03;;;;;;;3.60;1.00;;;;;;;;;;7394227;19;20471;-77
2022/06/06 02:59:30;;;;;;;1.95;1.00;;;;;;;;;;7392400;19;20006;-76
2022/06/06 03:01:55;;;;;;;0.80;0.80;;;;;;;;;;7395034;19;20464;-76
2022/06/06 03:04:21;;;;;;;1.60;1.08;;;;;;;;;;7392467;19;20051;-77
2022/06/06 03:07:03;;;;;;;1.20;1.10;;;;;;;;;;7394995;19;19998;-77
2022/06/06 03:09:41;;;;;;;1.25;1.02;;;;;;;;;;7385897;19;20010;-77
2022/06/06 03:12:29;;;;;;;1.40;1.08;;;;;;;;;;7392763;19;20026;-76
2022/06/06 03:15:40;;;;;;;4.85;1.15;;;;;;;;;;7394043;19;20077;-78
2022/06/06 03:21:00;;;;;;;2.05;1.00;;;;;;;;;;7387654;19;20371;-77
2022/06/06 03:23:43;;;;;;;8.57;1.10;;;;;;;;;;7387186;19;20002;-77
2022/06/06 03:26:27;;;;;;;0.98;0.90;;;;;;;;;;7391365;19;20494;-77
2022/06/06 03:29:22;;;;;;;1.05;0.77;;;;;;;;;;7390381;19;20006;-77
2022/06/06 03:32:14;;;;;;;2.90;1.23;;;;;;;;;;7393608;19;20075;-77
2022/06/06 03:34:49;;;;;;;1.40;0.88;;;;;;;;;;7394637;19;20022;-77
2022/06/06 03:37:34;;;;;;;1.48;0.70;;;;;;;;;;7389838;19;20126;-77
2022/06/06 03:40:17;;;;;;;1.42;1.10;;;;;;;;;;7392255;19;20002;-77
2022/06/06 03:42:54;;;;;;;1.77;1.15;;;;;;;;;;7393180;19;20089;-77
2022/06/06 03:45:28;;;;;;;1.60;0.70;;;;;;;;;;7388902;19;20025;-78
2022/06/06 03:48:19;;;;;;;0.95;0.60;;;;;;;;;;7386431;19;20681;-77
2022/06/06 03:51:14;;;;;;;0.80;0.80;;;;;;;;;;7380917;19;20003;-77
2022/06/06 03:53:43;;;;;;;1.00;0.80;;;;;;;;;;7384442;19;20007;-76
2022/06/06 03:56:37;;;;;;;0.80;0.80;;;;;;;;;;7387875;19;20006;-76
2022/06/06 03:59:05;;;;;;;1.73;1.00;;;;;;;;;;7384370;19;20014;-77
2022/06/06 04:01:31;;;;;;;1.65;0.98;;;;;;;;;;7387868;19;20026;-76
2022/06/06 04:03:57;;;;;;;1.67;1.10;;;;;;;;;;7383005;19;20044;-77
2022/06/06 04:06:25;;;;;;;2.03;0.90;;;;;;;;;;7386629;19;20011;-77
2022/06/06 04:08:50;;;;;;;0.93;0.90;;;;;;;;;;7383853;19;20018;-76
2022/06/06 04:11:37;;;;;;;2.22;1.20;;;;;;;;;;7389681;19;20026;-76
2022/06/06 04:14:39;;;;;;;1.58;0.90;;;;;;;;;;7384139;19;20017;-77
2022/06/06 04:17:44;;;;;;;1.75;1.10;;;;;;;;;;7389001;19;20014;-77
2022/06/06 04:20:27;;;;;;;1.50;1.00;;;;;;;;;;7388774;19;20508;-78
2022/06/06 04:23:11;;;;;;;3.97;1.20;;;;;;;;;;7385100;19;20118;-75
2022/06/06 04:25:55;;;;;;;1.75;0.95;;;;;;;;;;7386985;19;20006;-75
2022/06/06 04:28:34;;;;;;;1.48;1.13;;;;;;;;;;7386923;19;20218;-75
2022/06/06 04:31:12;;;;;;;1.33;0.80;;;;;;;;;;7388508;19;20011;-75
2022/06/06 04:33:56;;;;;;;1.83;0.70;;;;;;;;;;7384214;19;20014;-75
2022/06/06 04:36:29;;;;;;;0.90;0.90;;;;;;;;;;7378747;19;21161;-78
2022/06/06 04:39:28;;;;;;;0.77;0.77;;;;;;;;;;7390691;19;20476;-77
2022/06/06 04:41:59;;;;;;;3.40;1.00;;;;;;;;;;7389973;19;20034;-77
2022/06/06 04:44:56;;;;;;;0.88;0.88;;;;;;;;;;7382318;19;20011;-77
2022/06/06 04:47:39;;;;;;;1.05;0.90;;;;;;;;;;7387676;19;20014;-77
2022/06/06 04:50:08;;;;;;;1.48;1.20;;;;;;;;;;7382153;19;20003;-78
2022/06/06 04:52:36;;;;;;;2.30;1.25;;;;;;;;;;7387761;19;21768;-78
2022/06/06 04:55:05;;;;;;;0.90;0.90;;;;;;;;;;7384098;19;20505;-78
2022/06/06 04:57:31;;;;;;;3.55;2.25;;;;;;;;;;7387125;19;20031;-78
2022/06/06 04:59:59;;;;;;;3.33;1.58;;;;;;;;;;7383694;19;20027;-77
2022/06/06 05:02:26;;;;;;;2.30;1.73;;;;;;;;;;7387370;19;20468;-78
2022/06/06 05:04:51;;;;;;;1.33;1.23;;;;;;;;;;7389647;19;20010;-79
2022/06/06 05:07:34;;;;;;;1.17;1.08;;;;;;;;;;7388442;19;20364;-77
2022/06/06 05:10:21;;;;;;;1.25;1.10;;;;;;;;;;7382397;19;20135;-76
2022/06/06 05:13:06;;;;;;;1.38;1.05;;;;;;;;;;7386076;19;20086;-78
2022/06/06 05:15:36;;;;;;;1.63;1.30;;;;;;;;;;7388727;19;20111;-77
2022/06/06 05:18:17;;;;;;;1.42;1.33;;;;;;;;;;7388458;19;20006;-77
2022/06/06 05:21:15;;;;;;;10.43;5.40;;;;;;;;;;7388888;19;20017;-76
2022/06/06 05:24:06;;;;;;;3.28;1.80;;;;;;;;;;7387149;19;20086;-77
2022/06/06 05:26:54;;;;;;;4.15;1.40;;;;;;;;;;7395108;19;20002;-76
2022/06/06 05:29:25;;;;;;;4.93;2.00;;;;;;;;;;7387893;19;21906;-76
2022/06/06 05:32:00;;;;;;;1.77;1.20;;;;;;;;;;7387463;19;20007;-76
2022/06/06 05:34:33;;;;;;;1.30;1.20;;;;;;;;;;7382188;19;20013;-76
2022/06/06 05:37:15;;;;;;;2.67;1.42;;;;;;;;;;7383490;19;20408;-76
2022/06/06 05:40:20;;;;;;;2.90;2.25;;;;;;;;;;7386443;19;20010;-77
2022/06/06 05:43:04;;;;;;;2.05;1.42;;;;;;;;;;7392801;19;20043;-77
2022/06/06 05:45:32;;;;;;;1.30;1.20;;;;;;;;;;7387934;19;20019;-77
2022/06/06 05:48:04;;;;;;;1.65;1.50;;;;;;;;;;7389658;19;20039;-76
2022/06/06 05:50:35;;;;;;;1.95;1.30;;;;;;;;;;7387463;19;20016;-76
2022/06/06 05:53:32;;;;;;;3.60;1.63;;;;;;;;;;7388019;19;20034;-77
2022/06/06 05:56:26;;;;;;;3.95;1.90;;;;;;;;;;7387409;19;20424;-75
2022/06/06 05:58:58;;;;;;;1.92;1.45;;;;;;;;;;7387721;19;20041;-75
2022/06/06 06:01:48;;;;;;;1.80;1.30;;;;;;;;;;7387865;19;20007;-77
2022/06/06 06:04:40;;;;;;;1.17;1.08;;;;;;;;;;7386411;19;20015;-79
2022/06/06 06:07:17;;;;;;;2.92;1.23;;;;;;;;;;7386597;19;20431;-78
2022/06/06 06:10:02;;;;;;;1.80;1.30;;;;;;;;;;7391127;19;20011;-77
2022/06/06 06:12:49;;;;;;;3.07;1.63;;;;;;;;;;7385719;19;20022;-77
2022/06/06 06:15:20;;;;;;;2.05;1.50;;;;;;;;;;7382893;19;20009;-76
2022/06/06 06:17:49;;;;;;;4.72;2.10;;;;;;;;;;7386674;19;20110;-77
2022/06/06 06:20:21;;;;;;;3.00;1.52;;;;;;;;;;7381751;19;20003;-77
2022/06/06 06:22:53;;;;;;;3.75;1.33;;;;;;;;;;7385802;19;20011;-77
2022/06/06 06:25:19;;;;;;;1.75;1.35;;;;;;;;;;7392109;19;20091;-79
2022/06/06 06:27:45;;;;;;;2.60;1.45;;;;;;;;;;7391553;19;20394;-77
2022/06/06 06:30:12;;;;;;;2.55;1.40;;;;;;;;;;7393870;19;20065;-78
2022/06/06 06:32:55;;;;;;;2.70;1.30;;;;;;;;;;7398286;19;20006;-77
2022/06/06 06:35:36;;;;;;;6.60;1.98;;;;;;;;;;7396965;19;20015;-78
2022/06/06 06:38:23;;;;;;;1.23;1.13;;;;;;;;;;7394101;19;19994;-78
2022/06/06 06:41:01;;;;;;;2.95;1.38;;;;;;;;;;7390422;19;20496;-78
2022/06/06 06:43:29;;;;;;;1.80;1.00;;;;;;;;;;7394122;19;20048;-77
2022/06/06 06:46:00;;;;;;;1.40;1.20;;;;;;;;;;7393504;19;20010;-77
2022/06/06 06:48:37;;;;;;;1.88;1.40;;;;;;;;;;7393187;19;20465;-77
2022/06/06 06:51:33;;;;;;;1.52;1.42;;;;;;;;;;7391890;19;20007;-78
2022/06/06 06:54:13;;;;;;;1.45;1.35;;;;;;;;;;7390911;19;20740;-78
2022/06/06 06:57:02;;;;;;;2.20;1.50;;;;;;;;;;7396234;19;20134;-78
2022/06/06 06:59:34;;;;;;;1.50;1.40;;;;;;;;;;7392224;19;20543;-77
2022/06/06 07:11:01;;;;;;;1.83;1.40;;;;;;;;;;7392844;19;20430;-77
2022/06/06 07:14:04;;;;;;;3.13;1.35;;;;;;;;;;7391468;19;20010;-77
2022/06/06 07:16:38;;;;;;;1.40;1.02;;;;;;;;;;7392116;19;20416;-77
2022/06/06 07:19:10;;;;;;;1.77;1.40;;;;;;;;;;7391337;19;20108;-77
2022/06/06 07:21:38;;;;;;;2.22;1.60;;;;;;;;;;7391391;19;20002;-76
2022/06/06 07:24:07;;;;;;;2.72;1.20;;;;;;;;;;7390589;19;20317;-76
2022/06/06 07:26:37;;;;;;;3.92;1.63;;;;;;;;;;7389062;19;20014;-77
2022/06/06 07:29:07;;;;;;;3.90;1.45;;;;;;;;;;7385050;19;20488;-76
2022/06/06 07:31:38;;;;;;;4.00;1.70;;;;;;;;;;7390394;19;20189;-76
2022/06/06 07:34:30;;;;;;;1.60;1.33;;;;;;;;;;7392841;19;20002;-77
2022/06/06 07:37:32;;;;;;;2.15;1.17;;;;;;;;;;7390790;19;20115;-76
2022/06/06 07:40:27;;;;;;;3.55;1.20;;;;;;;;;;7392990;19;20443;-76
2022/06/06 07:43:02;;;;;;;1.38;1.23;;;;;;;;;;7387163;19;20014;-76
2022/06/06 07:45:36;;;;;;;1.75;1.10;;;;;;;;;;7385030;19;20007;-77
2022/06/06 07:48:29;;;;;;;1.23;1.10;;;;;;;;;;7382846;19;20022;-76
2022/06/06 07:51:06;;;;;;;1.92;1.40;;;;;;;;;;7390313;19;20497;-76
2022/06/06 07:53:47;;;;;;;1.23;1.13;;;;;;;;;;7391441;19;20107;-76
2022/06/06 07:56:37;;;;;;;1.92;1.33;;;;;;;;;;7389988;19;20519;-77
2022/06/06 07:59:26;;;;;;;2.08;1.30;;;;;;;;;;7390075;19;20018;-77
2022/06/06 08:02:35;;;;;;;2.53;1.08;;;;;;;;;;7391706;19;20006;-77
2022/06/06 08:05:34;;;;;;;1.30;1.20;;;;;;;;;;7384317;19;20082;-76
2022/06/06 08:08:05;;;;;;;1.50;1.20;;;;;;;;;;7388962;19;20010;-77
2022/06/06 08:10:40;;;;;;;2.00;1.20;;;;;;;;;;7391431;19;20507;-76
2022/06/06 08:13:27;;;;;;;6.65;1.60;;;;;;;;;;7391415;19;20340;-77
2022/06/06 08:15:58;;;;;;;2.60;1.23;;;;;;;;;;7391139;19;20115;-76
2022/06/06 08:18:51;;;;;;;2.60;1.40;;;;;;;;;;7388445;19;20036;-76
2022/06/06 08:21:36;;;;;;;1.58;1.42;;;;;;;;;;7386589;19;20449;-76
2022/06/06 08:24:08;;;;;;;2.33;1.40;;;;;;;;;;7384391;19;20462;-76
2022/06/06 08:26:41;;;;;;;1.75;1.45;;;;;;;;;;7383096;19;20011;-76
2022/06/06 08:29:08;;;;;;;1.40;1.30;;;;;;;;;;7384775;19;20665;-77
2022/06/06 08:31:33;;;;;;;1.50;1.23;;;;;;;;;;7388987;19;20006;-76
2022/06/06 08:33:59;;;;;;;1.92;1.60;;;;;;;;;;7386190;19;20015;-75
2022/06/06 08:36:49;;;;;;;2.30;1.30;;;;;;;;;;7388941;19;20010;-76
2022/06/06 08:39:37;;;;;;;2.63;1.50;;;;;;;;;;7387825;19;20613;-77
2022/06/06 08:42:34;;;;;;;3.42;1.60;;;;;;;;;;7388878;19;20022;-77
2022/06/06 08:45:28;;;;;;;2.15;1.27;;;;;;;;;;7388208;19;20347;-77
2022/06/06 08:48:14;;;;;;;3.38;1.30;;;;;;;;;;7387439;19;20006;-76
2022/06/06 08:50:45;;;;;;;3.15;1.40;;;;;;;;;;7387323;19;20013;-77
2022/06/06 08:53:52;;;;;;;1.17;1.02;;;;;;;;;;7391844;19;20435;-77
2022/06/06 08:56:42;;;;;;;3.55;1.40;;;;;;;;;;7388371;19;20059;-77
2022/06/06 08:59:22;;;;;;;1.98;1.17;;;;;;;;;;7387978;19;20002;-77
2022/06/06 09:01:58;;;;;;;2.20;1.35;;;;;;;;;;7387270;19;20497;-78
2022/06/06 09:04:57;;;;;;;1.38;1.27;;;;;;;;;;7386823;19;20019;-77
2022/06/06 09:07:34;;;;;;;1.45;1.35;;;;;;;;;;7385426;19;20014;-76
2022/06/06 09:10:21;;;;;;;1.20;1.10;;;;;;;;;;7387413;19;20603;-77
2022/06/06 09:13:22;;;;;;;2.30;1.00;;;;;;;;;;7386870;19;20019;-77
2022/06/06 09:16:22;;;;;;;2.05;1.20;;;;;;;;;;7385164;19;21174;-76
2022/06/06 09:18:51;;;;;;;2.92;1.10;;;;;;;;;;7388599;19;20467;-77
2022/06/06 09:21:47;;;;;;;3.97;1.40;;;;;;;;;;7386963;19;20062;-76
2022/06/06 09:24:22;;;;;;;1.30;1.20;;;;;;;;;;7388470;19;20010;-77
2022/06/06 09:27:21;;;;;;;1.35;1.05;;;;;;;;;;7389155;19;20006;-77
2022/06/06 09:30:24;;;;;;;1.58;0.98;;;;;;;;;;7389547;19;20023;-77
2022/06/06 09:33:27;;;;;;;2.85;1.20;;;;;;;;;;7385537;19;20018;-77
2022/06/06 09:35:53;;;;;;;2.38;1.25;;;;;;;;;;7386780;19;20003;-77
2022/06/06 09:38:34;;;;;;;3.20;1.33;;;;;;;;;;7384144;19;20011;-77
2022/06/06 09:41:28;;;;;;;1.20;1.10;;;;;;;;;;7387399;19;20074;-78
2022/06/06 09:44:15;;;;;;;3.67;1.40;;;;;;;;;;7385464;19;20018;-77
2022/06/06 09:47:39;;;;;;;1.27;0.95;;;;;;;;;;7389436;19;20010;-77
2022/06/06 09:50:28;;;;;;;1.77;1.25;;;;;;;;;;7384847;19;20093;-77
2022/06/06 09:52:59;;;;;;;1.48;1.17;;;;;;;;;;7382142;19;20002;-77
2022/06/06 09:59:18;;;;;;;1.83;1.13;;;;;;;;;;7395306;19;20523;-77
2022/06/06 10:01:46;;;;;;;3.10;1.20;;;;;;;;;;7401472;19;20063;-78
2022/06/06 10:04:43;;;;;;;1.13;1.02;;;;;;;;;;7399071;19;20053;-77
2022/06/06 10:07:26;;;;;;;1.88;1.10;;;;;;;;;;7400110;19;20459;-78
2022/06/06 10:10:03;;;;;;;1.83;0.98;;;;;;;;;;7399810;19;20364;-77
2022/06/06 10:12:50;;;;;;;2.70;1.10;;;;;;;;;;7398047;19;20019;-77
2022/06/06 10:15:18;;;;;;;1.17;1.05;;;;;;;;;;7399122;19;20471;-77
2022/06/06 10:18:17;;;;;;;1.10;1.00;;;;;;;;;;7395676;19;20025;-77
2022/06/06 10:20:59;;;;;;;3.22;1.70;;;;;;;;;;7394213;19;20432;-77
2022/06/06 10:23:36;;;;;;;1.05;1.00;;;;;;;;;;7396754;19;20340;-77
2022/06/06 10:26:02;;;;;;;1.40;0.98;;;;;;;;;;7397399;19;20010;-77
2022/06/06 10:28:58;;;;;;;2.38;1.05;;;;;;;;;;7397829;19;20766;-77
2022/06/06 10:32:03;;;;;;;2.05;1.10;;;;;;;;;;7399112;19;20353;-77
2022/06/06 10:34:28;;;;;;;3.45;0.93;;;;;;;;;;7398563;19;20015;-77
2022/06/06 10:37:18;;;;;;;1.42;1.20;;;;;;;;;;7402437;19;20016;-77
2022/06/06 10:40:16;;;;;;;3.22;1.15;;;;;;;;;;7402428;19;20018;-77
2022/06/06 10:43:05;;;;;;;1.58;0.80;;;;;;;;;;7402903;19;20144;-77
2022/06/06 10:45:56;;;;;;;1.42;0.80;;;;;;;;;;7399144;19;20011;-77
2022/06/06 10:48:25;;;;;;;1.90;1.15;;;;;;;;;;7401671;19;20006;-77
2022/06/06 10:54:27;;;;;;;2.13;1.10;;;;;;;;;;7402925;19;20027;-77
2022/06/06 10:57:26;;;;;;;1.20;0.98;;;;;;;;;;7401629;19;20048;-77
2022/06/06 11:00:15;;;;;;;2.15;1.00;;;;;;;;;;7402454;19;21534;-77
2022/06/06 11:03:14;;;;;;;1.60;1.00;;;;;;;;;;7402618;19;19994;-77
2022/06/06 11:06:06;;;;;;;0.93;0.90;;;;;;;;;;7398654;19;20084;-77
2022/06/06 11:09:01;;;;;;;1.95;1.00;;;;;;;;;;7400341;19;20142;-77
2022/06/06 11:11:51;;;;;;;1.90;1.08;;;;;;;;;;7394590;19;20014;-77
2022/06/06 11:14:25;;;;;;;1.58;1.00;;;;;;;;;;7395048;19;20007;-77
2022/06/06 11:16:53;;;;;;;;;;;;;;;;;;7397254;19;20037;-78
2022/06/06 11:19:37;;;;;;;1.63;0.95;;;;;;;;;;7392794;19;19922;-77
2022/06/06 11:22:24;;;;;;;3.22;1.40;;;;;;;;;;7395729;19;20023;-77
2022/06/06 11:25:09;;;;;;;9.48;4.93;;;;;;;;;;7389808;19;20010;-77
2022/06/06 11:27:49;;;;;;;11.93;6.40;;;;;;;;;;7393125;19;20006;-77
2022/06/06 11:30:44;;;;;;;11.57;5.85;;;;;;;;;;7394339;19;20022;-77
2022/06/06 11:33:46;;;;;;;3.03;2.03;;;;;;;;;;7395684;19;20006;-77
2022/06/06 11:36:44;;;;;;;1.90;1.25;;;;;;;;;;7394948;19;20015;-77
2022/06/06 11:39:53;;;;;;;1.92;1.20;;;;;;;;;;7391548;19;20436;-77
2022/06/06 11:43:01;;;;;;;4.10;1.52;;;;;;;;;;7392472;19;20044;-78
2022/06/06 11:45:43;;;;;;;1.08;0.93;;;;;;;;;;7390020;19;20010;-78
2022/06/06 11:48:18;;;;;;;1.30;1.10;;;;;;;;;;7392903;19;20495;-78
2022/06/06 11:51:09;;;;;;;1.50;0.90;;;;;;;;;;7394199;19;20404;-78
2022/06/06 11:53:47;;;;;;;1.40;1.10;;;;;;;;;;7395319;19;20026;-77
2022/06/06 11:56:46;;;;;;;0.82;0.82;;;;;;;;;;7414403;19;20011;-77
2022/06/06 11:59:44;;;;;;;1.40;0.90;;;;;;;;;;7416615;19;20007;-77
2022/06/06 12:02:45;;;;;;;1.40;0.90;;;;;;;;;;7417764;19;20229;-77
2022/06/06 12:05:35;;;;;;;1.42;1.05;;;;;;;;;;7403617;19;20025;-77
2022/06/06 12:08:10;;;;;;;0.88;0.77;;;;;;;;;;7394583;19;20014;-77
2022/06/06 12:11:32;;;;;;;1.20;0.75;;;;;;;;;;7392862;19;20011;-77
2022/06/06 12:14:05;;;;;;;1.67;1.08;;;;;;;;;;7393722;19;20458;-77
2022/06/06 12:16:48;;;;;;;2.38;1.15;;;;;;;;;;7395528;19;20078;-77
2022/06/06 12:19:49;;;;;;;1.63;0.98;;;;;;;;;;7388642;19;20014;-77
2022/06/06 12:22:14;;;;;;;3.85;0.90;;;;;;;;;;7394051;19;20018;-77
2022/06/06 12:25:27;;;;;;;1.85;1.10;;;;;;;;;;7389681;19;20002;-77
2022/06/06 12:28:07;;;;;;;2.00;1.10;;;;;;;;;;7390824;19;20010;-77
2022/06/06 12:30:48;;;;;;;1.73;0.80;;;;;;;;;;7392317;19;20007;-77
2022/06/06 12:33:28;;;;;;;0.95;0.70;;;;;;;;;;7393110;19;20015;-77
2022/06/06 12:36:09;;;;;;;1.00;0.90;;;;;;;;;;7390206;19;20006;-77
2022/06/06 12:38:53;;;;;;;3.15;1.02;;;;;;;;;;7393298;19;19998;-77
2022/06/06 12:41:30;;;;;;;1.60;0.90;;;;;;;;;;7393085;19;20021;-78
2022/06/06 12:44:04;;;;;;;1.48;1.00;;;;;;;;;;7390780;19;20011;-77
2022/06/06 12:46:56;;;;;;;3.10;0.90;;;;;;;;;;7392649;19;20314;-77
2022/06/06 12:49:51;;;;;;;1.45;0.93;;;;;;;;;;7392166;19;20021;-77
2022/06/06 12:52:19;;;;;;;1.13;0.75;;;;;;;;;;7393839;19;20006;-77
2022/06/06 12:58:01;;;;;;;0.98;0.88;;;;;;;;;;7392212;19;20019;-77
2022/06/06 13:01:37;;;;;;;;;;;;;;;;;;7391306;19;20014;-76
2022/06/06 13:03:32;;;;;;;1.88;0.80;;;;;;;;;;7389752;19;19926;-77
2022/06/06 13:06:38;;;;;;;1.02;0.77;;;;;;;;;;7394687;19;20007;-77
2022/06/06 13:09:22;;;;;;;1.30;0.70;;;;;;;;;;7404331;19;20413;-76
2022/06/06 13:11:54;;;;;;;0.93;0.90;;;;;;;;;;7395627;19;20010;-77
2022/06/06 13:14:50;;;;;;;0.80;0.80;;;;;;;;;;7393065;19;20014;-77
2022/06/06 13:17:25;;;;;;;1.80;1.00;;;;;;;;;;7398062;19;20025;-77
2022/06/06 13:20:06;;;;;;;1.17;0.70;;;;;;;;;;7394924;19;20040;-77
2022/06/06 13:22:59;;;;;;;3.25;1.20;;;;;;;;;;7397563;19;20022;-77
2022/06/06 13:25:43;;;;;;;0.90;0.90;;;;;;;;;;7391875;19;20010;-77
2022/06/06 13:28:20;;;;;;;1.52;0.98;;;;;;;;;;7395964;19;20515;-78
2022/06/06 13:30:49;;;;;;;2.63;0.90;;;;;;;;;;7395481;19;20021;-77
2022/06/06 13:33:23;;;;;;;2.15;1.10;;;;;;;;;;7392151;19;19998;-77
2022/06/06 13:36:30;;;;;;;1.30;0.82;;;;;;;;;;7392492;19;20003;-77
2022/06/06 13:39:07;;;;;;;1.08;0.90;;;;;;;;;;7392205;19;20013;-77
2022/06/06 13:41:47;;;;;;;1.30;0.95;;;;;;;;;;7397022;19;20040;-78
2022/06/06 13:44:47;;;;;;;1.00;0.90;;;;;;;;;;7390639;19;20017;-77
2022/06/06 13:47:22;;;;;;;2.78;0.80;;;;;;;;;;7391930;19;20342;-78
2022/06/06 13:50:11;;;;;;;1.42;0.85;;;;;;;;;;7391212;19;20018;-77
2022/06/06 13:53:05;;;;;;;0.60;0.60;;;;;;;;;;7391196;19;20018;-78
2022/06/06 13:55:37;;;;;;;0.98;0.88;;;;;;;;;;7391028;19;20110;-77
2022/06/06 13:58:21;;;;;;;1.25;1.05;;;;;;;;;;7392314;19;20353;-78
2022/06/06 14:01:01;;;;;;;2.38;1.25;;;;;;;;;;7390937;19;20021;-77
2022/06/06 14:03:48;;;;;;;0.80;0.80;;;;;;;;;;7391124;19;20017;-77
2022/06/06 14:06:13;;;;;;;1.58;0.85;;;;;;;;;;7388373;19;20011;-78
2022/06/06 14:08:52;;;;;;;2.33;1.00;;;;;;;;;;7389308;19;19999;-77
2022/06/06 14:11:45;;;;;;;0.90;0.80;;;;;;;;;;7389636;19;20062;-77
2022/06/06 14:14:16;;;;;;;1.02;0.60;;;;;;;;;;7390519;19;20359;-77
2022/06/06 14:16:47;;;;;;;0.77;0.77;;;;;;;;;;7392306;19;20043;-77
2022/06/06 14:19:26;;;;;;;2.15;0.70;;;;;;;;;;7390199;19;20010;-77
2022/06/06 14:22:01;;;;;;;2.00;1.23;;;;;;;;;;7389691;19;20010;-78
2022/06/06 14:24:28;;;;;;;;;;;;;;;;;;7389408;19;20015;-78
2022/06/06 14:26:59;;;;;;;0.70;0.70;;;;;;;;;;7391826;19;19914;-77
2022/06/06 14:29:36;;;;;;;1.15;0.80;;;;;;;;;;7388919;19;20023;-78
2022/06/06 14:32:17;;;;;;;2.67;0.80;;;;;;;;;;7391868;19;20018;-77
2022/06/06 14:34:45;;;;;;;0.70;0.70;;;;;;;;;;7390152;19;20018;-77
2022/06/06 14:37:40;;;;;;;2.60;0.88;;;;;;;;;;7389934;19;19999;-78
2022/06/06 14:40:09;;;;;;;1.85;0.90;;;;;;;;;;7388022;19;20010;-77
2022/06/06 14:42:37;;;;;;;0.80;0.70;;;;;;;;;;7391579;19;20007;-77
2022/06/06 14:45:10;;;;;;;1.75;1.10;;;;;;;;;;7388210;19;20015;-77
2022/06/06 14:47:47;;;;;;;0.77;0.77;;;;;;;;;;7397048;19;20003;-78
2022/06/06 14:53:09;;;;;;;0.82;0.80;;;;;;;;;;7399546;19;20014;-77
2022/06/06 14:55:35;;;;;;;0.95;0.80;;;;;;;;;;7395473;19;20017;-78
2022/06/06 14:58:08;;;;;;;0.60;0.60;;;;;;;;;;7393423;19;20011;-77
2022/06/06 15:00:38;;;;;;;1.60;0.80;;;;;;;;;;7398118;19;20044;-78
2022/06/06 15:03:08;;;;;;;3.40;0.77;;;;;;;;;;7389866;19;20010;-77
2022/06/06 15:05:35;;;;;;;1.05;0.95;;;;;;;;;;7390851;19;20034;-78
2022/06/06 15:08:12;;;;;;;0.93;0.88;;;;;;;;;;7395035;19;20010;-77
2022/06/06 15:10:49;;;;;;;1.75;0.77;;;;;;;;;;7394421;19;20014;-77
2022/06/06 15:13:16;;;;;;;1.20;0.52;;;;;;;;;;7391932;19;20031;-78
2022/06/06 15:15:47;;;;;;;3.47;0.80;;;;;;;;;;7393702;19;20006;-78
2022/06/06 15:18:29;;;;;;;0.80;0.80;;;;;;;;;;7394444;19;20010;-78
2022/06/06 15:20:57;;;;;;;0.82;0.80;;;;;;;;;;7395589;19;20014;-77
2022/06/06 15:23:47;;;;;;;2.13;0.80;;;;;;;;;;7395267;19;20444;-78
2022/06/06 15:26:28;;;;;;;1.48;0.70;;;;;;;;;;7393457;19;20014;-78
2022/06/06 15:29:15;;;;;;;0.70;0.70;;;;;;;;;;7391670;19;20459;-77
2022/06/06 15:31:44;;;;;;;1.00;0.90;;;;;;;;;;7393813;19;20031;-77
2022/06/06 15:34:31;;;;;;;0.85;0.85;;;;;;;;;;7387254;19;20017;-79
2022/06/06 15:37:11;;;;;;;1.33;0.80;;;;;;;;;;7387652;19;20079;-78
2022/06/06 15:39:57;;;;;;;0.68;0.68;;;;;;;;;;7389245;19;20007;-78
2022/06/06 15:42:40;;;;;;;1.60;0.70;;;;;;;;;;7392556;19;20014;-78
2022/06/06 15:46:03;;;;;;;1.75;0.90;;;;;;;;;;7385280;19;20034;-77
2022/06/06 15:48:58;;;;;;;0.70;0.70;;;;;;;;;;7383793;19;20011;-77
2022/06/06 15:51:31;;;;;;;0.82;0.68;;;;;;;;;;7386849;19;20500;-77
2022/06/06 15:54:11;;;;;;;3.92;0.80;;;;;;;;;;7388443;19;20325;-75
2022/06/06 15:57:06;;;;;;;1.00;0.80;;;;;;;;;;7391192;19;20026;-77
2022/06/06 15:59:59;;;;;;;1.23;0.75;;;;;;;;;;7386972;19;20018;-77
2022/06/06 16:02:38;;;;;;;1.88;0.85;;;;;;;;;;7390826;19;20014;-77
2022/06/06 16:05:16;;;;;;;0.90;0.80;;;;;;;;;;7385676;19;20078;-75
2022/06/06 16:07:44;;;;;;;0.73;0.73;;;;;;;;;;7388807;19;20475;-75
2022/06/06 16:10:13;;;;;;;0.73;0.70;;;;;;;;;;7377379;19;20656;-77
2022/06/06 16:13:04;;;;;;;1.17;0.85;;;;;;;;;;7381262;19;20069;-77
2022/06/06 16:16:00;;;;;;;1.30;0.80;;;;;;;;;;7379888;19;20014;-77
2022/06/06 16:18:36;;;;;;;1.00;0.82;;;;;;;;;;7387738;19;20055;-77
2022/06/06 16:21:11;;;;;;;0.85;0.80;;;;;;;;;;7388542;19;20018;-77
2022/06/06 16:23:45;;;;;;;0.98;0.90;;;;;;;;;;7389373;19;20010;-75